Bom Retiro do Sul, Brazil
Current Conditions -  °F | °C
As of 5:00 PM on Thursday 23 Oct 2014 (Local Time) from SBPA Reporting Station
Few Clouds Few Clouds  
Wind Chill: 81°   Ceiling: Unl
Heat Index: 82°   Visibility: 6mi
Dew Point: 64°   Wind: 10mph
Humidity: 58%   Direction: 110°ESE
Pressure: 29.94"   Gusts: NA
Location:  29.61°S, 51.94°W
Report Text: SBPA 231900Z 11009KT 9999 FEW040 27/18 Q1014
Loading
Personal Weather Stations






























Interactive Weather Map
Tropical Storm Tracking
New forecast layout! Learn more

10-Day Weather Forecast

Advertisements
Track Severe Weather on mobile